Terminal Aerodrome Forecast
Issued by NWS Cleveland, OH

Home | Current Version | Previous Version | Graphics & Text | Print | Product List | Glossary On
Versions: 1 2 3 4 5 6 7 8 9 10 11 12 13
663
FTUS41 KCLE 252339
TAFMFD
TAF
KMFD 252339Z 2600/2624 24007KT P6SM SCT080
     FM261400 26012G20KT P6SM BKN045
     FM261800 26015G22KT P6SM BKN060=

USA.gov is the U.S. government's official web portal to all federal, state and local government web resources and services.